sensor_id;sensor_type;location;lat;lon;timestamp;P1;durP1;ratioP1;P2;durP2;ratioP2
63782;SDS011;49925;52.522;5.732;2022-07-04T00:00:15;11.25;;;6.28;;
63782;SDS011;49925;52.522;5.732;2022-07-04T00:02:44;12.50;;;5.47;;
63782;SDS011;49925;52.522;5.732;2022-07-04T00:05:12;12.68;;;5.28;;
63782;SDS011;49925;52.522;5.732;2022-07-04T00:07:42;13.90;;;5.95;;
63782;SDS011;49925;52.522;5.732;2022-07-04T00:10:20;15.20;;;5.68;;
63782;SDS011;49925;52.522;5.732;2022-07-04T00:12:48;14.98;;;6.47;;
63782;SDS011;49925;52.522;5.732;2022-07-04T00:15:15;16.38;;;5.88;;
63782;SDS011;49925;52.522;5.732;2022-07-04T00:17:42;12.10;;;5.50;;
63782;SDS011;49925;52.522;5.732;2022-07-04T00:20:10;19.73;;;5.85;;
63782;SDS011;49925;52.522;5.732;2022-07-04T00:22:37;17.10;;;5.88;;
63782;SDS011;49925;52.522;5.732;2022-07-04T00:25:05;15.05;;;6.18;;
63782;SDS011;49925;52.522;5.732;2022-07-04T00:27:33;22.75;;;6.32;;
63782;SDS011;49925;52.522;5.732;2022-07-04T00:30:00;17.58;;;6.10;;
63782;SDS011;49925;52.522;5.732;2022-07-04T00:32:28;20.98;;;6.22;;
63782;SDS011;49925;52.522;5.732;2022-07-04T00:34:59;20.90;;;7.10;;
63782;SDS011;49925;52.522;5.732;2022-07-04T00:37:26;13.45;;;6.25;;
63782;SDS011;49925;52.522;5.732;2022-07-04T00:39:53;18.75;;;6.82;;
63782;SDS011;49925;52.522;5.732;2022-07-04T00:42:21;24.35;;;6.95;;
63782;SDS011;49925;52.522;5.732;2022-07-04T00:44:48;13.63;;;6.72;;
63782;SDS011;49925;52.522;5.732;2022-07-04T00:47:15;13.93;;;6.40;;
63782;SDS011;49925;52.522;5.732;2022-07-04T00:49:43;18.33;;;6.45;;
63782;SDS011;49925;52.522;5.732;2022-07-04T00:52:10;14.95;;;6.82;;
63782;SDS011;49925;52.522;5.732;2022-07-04T00:54:37;17.52;;;6.63;;
63782;SDS011;49925;52.522;5.732;2022-07-04T00:57:05;19.80;;;7.32;;
63782;SDS011;49925;52.522;5.732;2022-07-04T00:59:33;17.50;;;6.88;;
63782;SDS011;49925;52.522;5.732;2022-07-04T01:02:00;16.30;;;7.18;;
63782;SDS011;49925;52.522;5.732;2022-07-04T01:04:27;15.43;;;7.40;;
63782;SDS011;49925;52.522;5.732;2022-07-04T01:06:54;19.45;;;8.23;;
63782;SDS011;49925;52.522;5.732;2022-07-04T01:09:22;20.23;;;8.35;;
63782;SDS011;49925;52.522;5.732;2022-07-04T01:11:50;15.30;;;7.60;;
63782;SDS011;49925;52.522;5.732;2022-07-04T01:14:17;15.90;;;7.32;;
63782;SDS011;49925;52.522;5.732;2022-07-04T01:16:44;13.93;;;8.23;;
63782;SDS011;49925;52.522;5.732;2022-07-04T01:19:11;16.27;;;8.55;;
63782;SDS011;49925;52.522;5.732;2022-07-04T01:21:38;20.33;;;9.52;;
63782;SDS011;49925;52.522;5.732;2022-07-04T01:24:06;20.00;;;9.82;;
63782;SDS011;49925;52.522;5.732;2022-07-04T01:26:33;16.92;;;9.20;;
63782;SDS011;49925;52.522;5.732;2022-07-04T01:29:00;24.42;;;9.50;;
63782;SDS011;49925;52.522;5.732;2022-07-04T01:31:27;19.55;;;9.38;;
63782;SDS011;49925;52.522;5.732;2022-07-04T01:33:55;25.60;;;10.25;;
63782;SDS011;49925;52.522;5.732;2022-07-04T01:36:22;25.48;;;8.80;;
63782;SDS011;49925;52.522;5.732;2022-07-04T01:38:49;23.63;;;10.38;;
63782;SDS011;49925;52.522;5.732;2022-07-04T01:41:16;31.30;;;9.23;;
63782;SDS011;49925;52.522;5.732;2022-07-04T01:43:43;27.13;;;10.57;;
63782;SDS011;49925;52.522;5.732;2022-07-04T01:46:10;23.02;;;9.57;;
63782;SDS011;49925;52.522;5.732;2022-07-04T01:48:37;28.13;;;9.98;;
63782;SDS011;49925;52.522;5.732;2022-07-04T01:51:07;30.42;;;10.02;;
63782;SDS011;49925;52.522;5.732;2022-07-04T01:53:37;24.30;;;9.55;;
63782;SDS011;49925;52.522;5.732;2022-07-04T01:56:07;24.73;;;10.80;;
63782;SDS011;49925;52.522;5.732;2022-07-04T01:58:37;20.20;;;9.45;;
63782;SDS011;49925;52.522;5.732;2022-07-04T02:01:04;20.10;;;9.80;;
63782;SDS011;49925;52.522;5.732;2022-07-04T02:03:50;18.83;;;9.27;;
63782;SDS011;49925;52.522;5.732;2022-07-04T02:06:17;29.10;;;8.95;;
63782;SDS011;49925;52.522;5.732;2022-07-04T02:08:45;16.02;;;8.98;;
63782;SDS011;49925;52.522;5.732;2022-07-04T02:11:30;22.80;;;10.43;;
63782;SDS011;49925;52.522;5.732;2022-07-04T02:14:18;22.00;;;10.10;;
63782;SDS011;49925;52.522;5.732;2022-07-04T02:16:45;25.60;;;10.02;;
63782;SDS011;49925;52.522;5.732;2022-07-04T02:19:12;18.80;;;9.88;;
63782;SDS011;49925;52.522;5.732;2022-07-04T02:21:39;27.48;;;10.18;;
63782;SDS011;49925;52.522;5.732;2022-07-04T02:24:06;27.80;;;10.38;;
63782;SDS011;49925;52.522;5.732;2022-07-04T02:26:34;19.30;;;9.95;;
63782;SDS011;49925;52.522;5.732;2022-07-04T02:29:01;23.23;;;9.60;;
63782;SDS011;49925;52.522;5.732;2022-07-04T02:31:28;29.52;;;9.90;;
63782;SDS011;49925;52.522;5.732;2022-07-04T02:33:55;26.30;;;10.30;;
63782;SDS011;49925;52.522;5.732;2022-07-04T02:36:24;21.67;;;10.10;;
63782;SDS011;49925;52.522;5.732;2022-07-04T02:38:51;25.58;;;9.95;;
63782;SDS011;49925;52.522;5.732;2022-07-04T02:41:18;30.35;;;11.30;;
63782;SDS011;49925;52.522;5.732;2022-07-04T02:43:45;25.65;;;9.95;;
63782;SDS011;49925;52.522;5.732;2022-07-04T02:46:13;26.85;;;10.30;;
63782;SDS011;49925;52.522;5.732;2022-07-04T02:48:40;19.52;;;9.70;;
63782;SDS011;49925;52.522;5.732;2022-07-04T02:51:07;26.70;;;9.65;;
63782;SDS011;49925;52.522;5.732;2022-07-04T02:53:34;17.88;;;9.63;;
63782;SDS011;49925;52.522;5.732;2022-07-04T02:56:01;35.13;;;10.32;;
63782;SDS011;49925;52.522;5.732;2022-07-04T02:58:31;30.05;;;9.80;;
63782;SDS011;49925;52.522;5.732;2022-07-04T03:00:59;26.05;;;10.05;;
63782;SDS011;49925;52.522;5.732;2022-07-04T03:03:27;31.17;;;9.57;;
63782;SDS011;49925;52.522;5.732;2022-07-04T03:05:54;18.70;;;9.50;;
63782;SDS011;49925;52.522;5.732;2022-07-04T03:08:30;24.45;;;10.02;;
63782;SDS011;49925;52.522;5.732;2022-07-04T03:10:57;23.73;;;8.80;;
63782;SDS011;49925;52.522;5.732;2022-07-04T03:13:24;22.73;;;9.07;;
63782;SDS011;49925;52.522;5.732;2022-07-04T03:15:51;21.80;;;8.93;;
63782;SDS011;49925;52.522;5.732;2022-07-04T03:18:19;23.20;;;9.38;;
63782;SDS011;49925;52.522;5.732;2022-07-04T03:20:46;29.20;;;11.30;;
63782;SDS011;49925;52.522;5.732;2022-07-04T03:23:13;20.75;;;10.77;;
63782;SDS011;49925;52.522;5.732;2022-07-04T03:25:41;24.98;;;10.00;;
63782;SDS011;49925;52.522;5.732;2022-07-04T03:28:08;24.33;;;10.02;;
63782;SDS011;49925;52.522;5.732;2022-07-04T03:30:35;25.83;;;10.07;;
63782;SDS011;49925;52.522;5.732;2022-07-04T03:33:03;26.15;;;10.55;;
63782;SDS011;49925;52.522;5.732;2022-07-04T03:35:30;29.92;;;10.52;;
63782;SDS011;49925;52.522;5.732;2022-07-04T03:37:57;28.98;;;10.80;;
63782;SDS011;49925;52.522;5.732;2022-07-04T03:40:24;26.58;;;10.77;;
63782;SDS011;49925;52.522;5.732;2022-07-04T03:42:54;25.92;;;11.30;;
63782;SDS011;49925;52.522;5.732;2022-07-04T03:45:21;27.45;;;10.50;;
63782;SDS011;49925;52.522;5.732;2022-07-04T03:47:48;30.50;;;10.85;;
63782;SDS011;49925;52.522;5.732;2022-07-04T03:50:16;32.50;;;11.20;;
63782;SDS011;49925;52.522;5.732;2022-07-04T03:52:43;22.08;;;10.00;;
63782;SDS011;49925;52.522;5.732;2022-07-04T03:55:10;19.38;;;10.48;;
63782;SDS011;49925;52.522;5.732;2022-07-04T03:57:38;27.42;;;10.55;;
63782;SDS011;49925;52.522;5.732;2022-07-04T04:00:05;23.02;;;11.40;;
63782;SDS011;49925;52.522;5.732;2022-07-04T04:02:34;23.17;;;10.48;;
63782;SDS011;49925;52.522;5.732;2022-07-04T04:05:01;30.83;;;10.48;;
63782;SDS011;49925;52.522;5.732;2022-07-04T04:07:47;29.48;;;10.23;;
63782;SDS011;49925;52.522;5.732;2022-07-04T04:10:14;24.52;;;10.25;;
63782;SDS011;49925;52.522;5.732;2022-07-04T04:12:41;23.42;;;10.52;;
63782;SDS011;49925;52.522;5.732;2022-07-04T04:15:08;21.75;;;10.40;;
63782;SDS011;49925;52.522;5.732;2022-07-04T04:17:36;22.40;;;9.25;;
63782;SDS011;49925;52.522;5.732;2022-07-04T04:20:03;21.77;;;10.98;;
63782;SDS011;49925;52.522;5.732;2022-07-04T04:22:31;23.52;;;10.00;;
63782;SDS011;49925;52.522;5.732;2022-07-04T04:24:58;26.15;;;10.18;;
63782;SDS011;49925;52.522;5.732;2022-07-04T04:27:25;22.60;;;9.75;;
63782;SDS011;49925;52.522;5.732;2022-07-04T04:29:52;27.95;;;10.68;;
63782;SDS011;49925;52.522;5.732;2022-07-04T04:32:20;29.10;;;10.48;;
63782;SDS011;49925;52.522;5.732;2022-07-04T04:34:48;44.78;;;10.52;;
63782;SDS011;49925;52.522;5.732;2022-07-04T04:37:15;30.70;;;10.13;;
63782;SDS011;49925;52.522;5.732;2022-07-04T04:39:42;25.45;;;9.73;;
63782;SDS011;49925;52.522;5.732;2022-07-04T04:42:09;27.15;;;9.45;;
63782;SDS011;49925;52.522;5.732;2022-07-04T04:44:36;28.33;;;9.07;;
63782;SDS011;49925;52.522;5.732;2022-07-04T04:47:03;28.00;;;10.43;;
63782;SDS011;49925;52.522;5.732;2022-07-04T04:49:30;33.30;;;9.82;;
63782;SDS011;49925;52.522;5.732;2022-07-04T04:51:57;24.38;;;10.02;;
63782;SDS011;49925;52.522;5.732;2022-07-04T04:54:25;18.55;;;9.07;;
63782;SDS011;49925;52.522;5.732;2022-07-04T04:56:52;19.67;;;10.65;;
63782;SDS011;49925;52.522;5.732;2022-07-04T04:59:19;34.08;;;11.57;;
63782;SDS011;49925;52.522;5.732;2022-07-04T05:01:46;32.95;;;10.85;;
63782;SDS011;49925;52.522;5.732;2022-07-04T05:04:13;21.83;;;10.60;;
63782;SDS011;49925;52.522;5.732;2022-07-04T05:06:41;23.50;;;10.20;;
63782;SDS011;49925;52.522;5.732;2022-07-04T05:09:09;29.20;;;11.80;;
63782;SDS011;49925;52.522;5.732;2022-07-04T05:11:36;32.55;;;10.95;;
63782;SDS011;49925;52.522;5.732;2022-07-04T05:14:05;27.58;;;11.23;;
63782;SDS011;49925;52.522;5.732;2022-07-04T05:16:33;30.25;;;10.95;;
63782;SDS011;49925;52.522;5.732;2022-07-04T05:19:01;28.88;;;10.60;;
63782;SDS011;49925;52.522;5.732;2022-07-04T05:21:28;25.02;;;11.18;;
63782;SDS011;49925;52.522;5.732;2022-07-04T05:23:56;35.35;;;12.25;;
63782;SDS011;49925;52.522;5.732;2022-07-04T05:26:23;32.78;;;12.07;;
63782;SDS011;49925;52.522;5.732;2022-07-04T05:28:52;28.35;;;11.60;;
63782;SDS011;49925;52.522;5.732;2022-07-04T05:31:21;34.95;;;11.75;;
63782;SDS011;49925;52.522;5.732;2022-07-04T05:33:51;28.98;;;10.30;;
63782;SDS011;49925;52.522;5.732;2022-07-04T05:36:23;33.45;;;11.38;;
63782;SDS011;49925;52.522;5.732;2022-07-04T05:38:55;29.60;;;10.70;;
63782;SDS011;49925;52.522;5.732;2022-07-04T05:41:23;28.02;;;11.48;;
63782;SDS011;49925;52.522;5.732;2022-07-04T05:43:50;29.02;;;11.52;;
63782;SDS011;49925;52.522;5.732;2022-07-04T05:46:23;33.55;;;11.70;;
63782;SDS011;49925;52.522;5.732;2022-07-04T05:48:51;24.65;;;11.07;;
63782;SDS011;49925;52.522;5.732;2022-07-04T05:51:18;31.50;;;11.15;;
63782;SDS011;49925;52.522;5.732;2022-07-04T05:53:45;32.83;;;11.70;;
63782;SDS011;49925;52.522;5.732;2022-07-04T05:56:12;36.47;;;11.40;;
63782;SDS011;49925;52.522;5.732;2022-07-04T05:58:39;30.27;;;10.77;;
63782;SDS011;49925;52.522;5.732;2022-07-04T06:01:07;44.75;;;11.93;;
63782;SDS011;49925;52.522;5.732;2022-07-04T06:03:35;42.40;;;11.80;;
63782;SDS011;49925;52.522;5.732;2022-07-04T06:06:05;31.13;;;11.48;;
63782;SDS011;49925;52.522;5.732;2022-07-04T06:08:32;30.90;;;12.07;;
63782;SDS011;49925;52.522;5.732;2022-07-04T06:11:00;33.53;;;11.82;;
63782;SDS011;49925;52.522;5.732;2022-07-04T06:13:27;25.70;;;11.13;;
63782;SDS011;49925;52.522;5.732;2022-07-04T06:15:55;33.50;;;11.90;;
63782;SDS011;49925;52.522;5.732;2022-07-04T06:18:22;33.60;;;12.05;;
63782;SDS011;49925;52.522;5.732;2022-07-04T07:59:54;15.20;;;5.30;;
63782;SDS011;49925;52.522;5.732;2022-07-04T08:02:22;21.75;;;6.35;;
63782;SDS011;49925;52.522;5.732;2022-07-04T10:06:47;9.40;;;3.13;;
63782;SDS011;49925;52.522;5.732;2022-07-04T12:42:13;7.85;;;2.28;;
63782;SDS011;49925;52.522;5.732;2022-07-04T12:44:46;11.07;;;2.20;;
63782;SDS011;49925;52.522;5.732;2022-07-04T12:47:16;8.45;;;2.13;;
63782;SDS011;49925;52.522;5.732;2022-07-04T12:50:02;5.65;;;2.17;;
63782;SDS011;49925;52.522;5.732;2022-07-04T12:52:30;12.55;;;2.65;;
63782;SDS011;49925;52.522;5.732;2022-07-04T12:55:01;5.47;;;2.17;;
63782;SDS011;49925;52.522;5.732;2022-07-04T12:57:38;6.43;;;2.22;;
63782;SDS011;49925;52.522;5.732;2022-07-04T13:00:05;4.35;;;1.90;;
63782;SDS011;49925;52.522;5.732;2022-07-04T13:02:54;6.63;;;2.20;;
63782;SDS011;49925;52.522;5.732;2022-07-04T13:05:26;6.72;;;2.20;;
63782;SDS011;49925;52.522;5.732;2022-07-04T13:07:53;7.28;;;2.10;;
63782;SDS011;49925;52.522;5.732;2022-07-04T13:10:20;9.75;;;2.08;;
63782;SDS011;49925;52.522;5.732;2022-07-04T13:12:48;3.78;;;2.10;;
63782;SDS011;49925;52.522;5.732;2022-07-04T13:15:15;9.35;;;2.10;;
63782;SDS011;49925;52.522;5.732;2022-07-04T13:17:42;4.72;;;2.00;;
63782;SDS011;49925;52.522;5.732;2022-07-04T13:20:10;5.82;;;2.10;;
63782;SDS011;49925;52.522;5.732;2022-07-04T13:22:38;5.35;;;2.10;;
63782;SDS011;49925;52.522;5.732;2022-07-04T13:25:06;5.40;;;2.10;;
63782;SDS011;49925;52.522;5.732;2022-07-04T13:27:34;6.78;;;2.50;;
63782;SDS011;49925;52.522;5.732;2022-07-04T13:30:01;7.95;;;2.15;;
63782;SDS011;49925;52.522;5.732;2022-07-04T13:32:31;7.03;;;2.10;;
63782;SDS011;49925;52.522;5.732;2022-07-04T13:34:59;7.82;;;2.17;;
63782;SDS011;49925;52.522;5.732;2022-07-04T13:37:26;5.43;;;2.03;;
63782;SDS011;49925;52.522;5.732;2022-07-04T13:39:53;7.80;;;2.00;;
63782;SDS011;49925;52.522;5.732;2022-07-04T13:42:24;7.55;;;2.30;;
63782;SDS011;49925;52.522;5.732;2022-07-04T13:45:09;8.25;;;2.00;;
63782;SDS011;49925;52.522;5.732;2022-07-04T13:47:39;4.93;;;2.03;;
63782;SDS011;49925;52.522;5.732;2022-07-04T13:50:06;3.85;;;2.00;;
63782;SDS011;49925;52.522;5.732;2022-07-04T13:52:34;4.47;;;2.08;;
63782;SDS011;49925;52.522;5.732;2022-07-04T13:55:01;9.80;;;2.50;;
63782;SDS011;49925;52.522;5.732;2022-07-04T16:11:25;13.18;;;2.60;;
63782;SDS011;49925;52.522;5.732;2022-07-04T16:13:59;9.60;;;2.78;;
63782;SDS011;49925;52.522;5.732;2022-07-04T16:16:27;8.30;;;2.50;;
63782;SDS011;49925;52.522;5.732;2022-07-04T16:18:54;7.82;;;2.42;;
63782;SDS011;49925;52.522;5.732;2022-07-04T16:21:21;10.60;;;2.80;;
63782;SDS011;49925;52.522;5.732;2022-07-04T16:23:49;6.85;;;2.80;;
63782;SDS011;49925;52.522;5.732;2022-07-04T16:26:16;5.60;;;2.30;;
63782;SDS011;49925;52.522;5.732;2022-07-04T16:28:44;5.05;;;2.42;;
63782;SDS011;49925;52.522;5.732;2022-07-04T16:31:11;12.05;;;2.50;;
63782;SDS011;49925;52.522;5.732;2022-07-04T16:33:39;8.10;;;2.70;;
63782;SDS011;49925;52.522;5.732;2022-07-04T16:36:06;7.65;;;2.25;;
63782;SDS011;49925;52.522;5.732;2022-07-04T16:38:35;9.10;;;2.40;;
63782;SDS011;49925;52.522;5.732;2022-07-04T16:41:02;9.80;;;3.10;;
63782;SDS011;49925;52.522;5.732;2022-07-04T16:43:30;7.95;;;2.58;;
63782;SDS011;49925;52.522;5.732;2022-07-04T16:45:59;6.40;;;2.72;;
63782;SDS011;49925;52.522;5.732;2022-07-04T16:48:26;9.10;;;2.70;;
63782;SDS011;49925;52.522;5.732;2022-07-04T16:50:53;11.45;;;2.90;;
63782;SDS011;49925;52.522;5.732;2022-07-04T16:53:20;7.82;;;2.70;;
63782;SDS011;49925;52.522;5.732;2022-07-04T16:55:48;10.15;;;2.80;;
63782;SDS011;49925;52.522;5.732;2022-07-04T16:58:16;8.02;;;2.70;;
63782;SDS011;49925;52.522;5.732;2022-07-04T17:00:43;9.35;;;2.90;;
63782;SDS011;49925;52.522;5.732;2022-07-04T17:03:10;11.82;;;2.90;;
63782;SDS011;49925;52.522;5.732;2022-07-04T17:05:37;5.78;;;2.60;;
63782;SDS011;49925;52.522;5.732;2022-07-04T17:08:07;6.00;;;2.55;;
63782;SDS011;49925;52.522;5.732;2022-07-04T17:10:35;10.00;;;3.13;;
63782;SDS011;49925;52.522;5.732;2022-07-04T17:13:02;6.20;;;2.60;;
63782;SDS011;49925;52.522;5.732;2022-07-04T17:15:35;7.57;;;2.40;;
63782;SDS011;49925;52.522;5.732;2022-07-04T17:18:03;6.72;;;2.33;;
63782;SDS011;49925;52.522;5.732;2022-07-04T17:20:31;6.97;;;2.60;;
63782;SDS011;49925;52.522;5.732;2022-07-04T17:22:59;13.50;;;2.85;;
63782;SDS011;49925;52.522;5.732;2022-07-04T17:25:26;5.80;;;2.60;;
63782;SDS011;49925;52.522;5.732;2022-07-04T17:27:53;7.75;;;2.42;;
63782;SDS011;49925;52.522;5.732;2022-07-04T17:30:20;5.00;;;2.55;;
63782;SDS011;49925;52.522;5.732;2022-07-04T17:32:47;7.25;;;2.72;;
63782;SDS011;49925;52.522;5.732;2022-07-04T17:35:14;4.63;;;2.85;;
63782;SDS011;49925;52.522;5.732;2022-07-04T17:37:41;14.40;;;2.60;;
63782;SDS011;49925;52.522;5.732;2022-07-04T17:40:09;6.07;;;2.60;;
63782;SDS011;49925;52.522;5.732;2022-07-04T17:42:36;6.88;;;2.90;;
63782;SDS011;49925;52.522;5.732;2022-07-04T17:45:06;10.30;;;2.58;;
63782;SDS011;49925;52.522;5.732;2022-07-04T17:47:34;8.63;;;2.70;;
63782;SDS011;49925;52.522;5.732;2022-07-04T17:50:01;13.85;;;2.88;;
63782;SDS011;49925;52.522;5.732;2022-07-04T17:52:29;7.65;;;2.67;;
63782;SDS011;49925;52.522;5.732;2022-07-04T17:54:56;8.65;;;3.17;;
63782;SDS011;49925;52.522;5.732;2022-07-04T17:57:24;7.00;;;2.42;;
63782;SDS011;49925;52.522;5.732;2022-07-04T17:59:51;7.40;;;2.55;;
63782;SDS011;49925;52.522;5.732;2022-07-04T18:02:18;8.80;;;2.60;;
63782;SDS011;49925;52.522;5.732;2022-07-04T18:04:46;8.55;;;3.30;;
63782;SDS011;49925;52.522;5.732;2022-07-04T18:07:13;8.73;;;3.90;;
63782;SDS011;49925;52.522;5.732;2022-07-04T18:09:41;9.25;;;3.40;;
63782;SDS011;49925;52.522;5.732;2022-07-04T18:12:09;7.25;;;2.78;;
63782;SDS011;49925;52.522;5.732;2022-07-04T18:14:36;6.93;;;2.67;;
63782;SDS011;49925;52.522;5.732;2022-07-04T18:17:05;7.13;;;2.78;;
63782;SDS011;49925;52.522;5.732;2022-07-04T18:19:32;5.32;;;2.28;;
63782;SDS011;49925;52.522;5.732;2022-07-04T18:21:59;11.93;;;2.55;;
63782;SDS011;49925;52.522;5.732;2022-07-04T18:24:26;11.45;;;2.67;;
63782;SDS011;49925;52.522;5.732;2022-07-04T18:26:54;5.95;;;2.55;;
63782;SDS011;49925;52.522;5.732;2022-07-04T18:29:21;5.30;;;2.25;;
63782;SDS011;49925;52.522;5.732;2022-07-04T18:31:52;10.00;;;2.83;;
63782;SDS011;49925;52.522;5.732;2022-07-04T18:34:24;5.28;;;2.33;;
63782;SDS011;49925;52.522;5.732;2022-07-04T18:36:52;7.05;;;2.50;;
63782;SDS011;49925;52.522;5.732;2022-07-04T18:39:19;4.25;;;2.50;;
63782;SDS011;49925;52.522;5.732;2022-07-04T18:41:47;7.53;;;2.60;;
63782;SDS011;49925;52.522;5.732;2022-07-04T18:44:33;7.13;;;2.35;;
63782;SDS011;49925;52.522;5.732;2022-07-04T18:47:01;9.82;;;2.50;;
63782;SDS011;49925;52.522;5.732;2022-07-04T18:49:29;4.47;;;2.60;;
63782;SDS011;49925;52.522;5.732;2022-07-04T18:51:56;7.07;;;3.13;;
63782;SDS011;49925;52.522;5.732;2022-07-04T18:54:24;8.80;;;3.00;;
63782;SDS011;49925;52.522;5.732;2022-07-04T18:56:54;8.83;;;3.00;;
63782;SDS011;49925;52.522;5.732;2022-07-04T18:59:21;16.48;;;2.83;;
63782;SDS011;49925;52.522;5.732;2022-07-04T19:01:49;7.75;;;2.60;;
63782;SDS011;49925;52.522;5.732;2022-07-04T19:04:16;5.95;;;2.80;;
63782;SDS011;49925;52.522;5.732;2022-07-04T19:19:02;11.90;;;3.78;;
63782;SDS011;49925;52.522;5.732;2022-07-04T19:21:31;7.95;;;3.00;;
63782;SDS011;49925;52.522;5.732;2022-07-04T19:23:58;9.07;;;3.20;;
63782;SDS011;49925;52.522;5.732;2022-07-04T19:26:25;9.30;;;3.10;;
63782;SDS011;49925;52.522;5.732;2022-07-04T19:28:52;6.72;;;3.28;;
63782;SDS011;49925;52.522;5.732;2022-07-04T19:31:19;11.63;;;3.38;;
63782;SDS011;49925;52.522;5.732;2022-07-04T19:33:47;7.88;;;3.05;;
63782;SDS011;49925;52.522;5.732;2022-07-04T19:36:14;6.18;;;3.20;;
63782;SDS011;49925;52.522;5.732;2022-07-04T19:38:44;4.80;;;3.08;;
63782;SDS011;49925;52.522;5.732;2022-07-04T19:41:12;5.68;;;2.85;;
63782;SDS011;49925;52.522;5.732;2022-07-04T19:43:39;7.78;;;2.80;;
63782;SDS011;49925;52.522;5.732;2022-07-04T19:46:06;8.40;;;3.70;;
63782;SDS011;49925;52.522;5.732;2022-07-04T19:48:34;7.25;;;3.40;;
63782;SDS011;49925;52.522;5.732;2022-07-04T19:51:05;7.78;;;3.08;;
63782;SDS011;49925;52.522;5.732;2022-07-04T19:56:04;8.55;;;2.83;;
63782;SDS011;49925;52.522;5.732;2022-07-04T19:58:31;8.50;;;3.05;;
63782;SDS011;49925;52.522;5.732;2022-07-04T20:13:21;11.73;;;3.85;;
63782;SDS011;49925;52.522;5.732;2022-07-04T20:15:48;8.00;;;3.80;;
63782;SDS011;49925;52.522;5.732;2022-07-04T20:18:16;7.55;;;3.90;;
63782;SDS011;49925;52.522;5.732;2022-07-04T20:20:43;5.65;;;3.42;;
63782;SDS011;49925;52.522;5.732;2022-07-04T20:23:10;8.82;;;3.10;;
63782;SDS011;49925;52.522;5.732;2022-07-04T20:25:37;9.85;;;2.70;;
63782;SDS011;49925;52.522;5.732;2022-07-04T20:28:06;10.35;;;2.90;;
63782;SDS011;49925;52.522;5.732;2022-07-04T20:30:36;8.38;;;3.13;;
63782;SDS011;49925;52.522;5.732;2022-07-04T20:33:03;6.10;;;3.20;;
63782;SDS011;49925;52.522;5.732;2022-07-04T20:35:31;9.63;;;3.00;;
63782;SDS011;49925;52.522;5.732;2022-07-04T20:37:58;6.40;;;3.13;;
63782;SDS011;49925;52.522;5.732;2022-07-04T20:40:25;7.32;;;2.85;;
63782;SDS011;49925;52.522;5.732;2022-07-04T20:42:53;8.70;;;3.30;;
63782;SDS011;49925;52.522;5.732;2022-07-04T20:45:21;13.00;;;3.47;;
63782;SDS011;49925;52.522;5.732;2022-07-04T20:47:48;10.15;;;3.28;;
63782;SDS011;49925;52.522;5.732;2022-07-04T20:50:15;11.82;;;3.40;;
63782;SDS011;49925;52.522;5.732;2022-07-04T20:52:42;11.93;;;3.60;;
63782;SDS011;49925;52.522;5.732;2022-07-04T20:55:09;10.50;;;3.45;;
63782;SDS011;49925;52.522;5.732;2022-07-04T20:57:40;13.65;;;3.30;;
63782;SDS011;49925;52.522;5.732;2022-07-04T21:00:09;10.13;;;3.72;;
63782;SDS011;49925;52.522;5.732;2022-07-04T21:02:36;8.95;;;3.55;;
63782;SDS011;49925;52.522;5.732;2022-07-04T21:05:04;15.98;;;3.92;;
63782;SDS011;49925;52.522;5.732;2022-07-04T21:50:09;11.57;;;3.60;;
63782;SDS011;49925;52.522;5.732;2022-07-04T21:52:36;18.77;;;3.92;;
63782;SDS011;49925;52.522;5.732;2022-07-04T21:55:04;8.98;;;3.97;;
63782;SDS011;49925;52.522;5.732;2022-07-04T21:57:31;7.30;;;3.92;;
63782;SDS011;49925;52.522;5.732;2022-07-04T21:59:58;12.80;;;4.00;;
63782;SDS011;49925;52.522;5.732;2022-07-04T22:02:26;12.77;;;3.63;;
63782;SDS011;49925;52.522;5.732;2022-07-04T22:04:53;9.30;;;3.72;;
63782;SDS011;49925;52.522;5.732;2022-07-04T22:07:20;13.82;;;4.03;;
63782;SDS011;49925;52.522;5.732;2022-07-04T22:09:48;10.88;;;4.07;;
63782;SDS011;49925;52.522;5.732;2022-07-04T22:12:15;11.43;;;4.13;;
63782;SDS011;49925;52.522;5.732;2022-07-04T22:14:42;8.50;;;3.55;;
63782;SDS011;49925;52.522;5.732;2022-07-04T22:26:58;15.88;;;4.75;;
63782;SDS011;49925;52.522;5.732;2022-07-04T22:29:25;14.02;;;4.50;;
63782;SDS011;49925;52.522;5.732;2022-07-04T22:31:52;12.57;;;4.30;;
63782;SDS011;49925;52.522;5.732;2022-07-04T22:34:19;9.18;;;4.47;;
63782;SDS011;49925;52.522;5.732;2022-07-04T22:36:46;10.00;;;4.18;;
63782;SDS011;49925;52.522;5.732;2022-07-04T22:39:13;14.40;;;4.95;;
63782;SDS011;49925;52.522;5.732;2022-07-04T22:41:40;10.45;;;4.63;;
63782;SDS011;49925;52.522;5.732;2022-07-04T22:44:07;11.00;;;4.30;;
63782;SDS011;49925;52.522;5.732;2022-07-04T22:46:35;9.05;;;4.68;;
63782;SDS011;49925;52.522;5.732;2022-07-04T22:49:02;10.07;;;4.70;;
63782;SDS011;49925;52.522;5.732;2022-07-04T22:51:30;11.02;;;4.50;;
